createdAt,value
2023-03-20T00:01:00.997Z,3.53
2023-03-20T00:03:29.167Z,3.72
2023-03-20T00:05:57.311Z,3.90
2023-03-20T00:08:27.888Z,4.43
2023-03-20T00:10:57.422Z,5.40
2023-03-20T00:13:29.188Z,3.60
2023-03-20T00:15:57.695Z,5.82
2023-03-20T00:18:26.588Z,3.83
2023-03-20T00:20:54.731Z,5.38
2023-03-20T00:23:22.876Z,5.28
2023-03-20T00:25:51.296Z,3.72
2023-03-20T00:28:42.107Z,3.85
2023-03-20T00:31:25.345Z,4.07
2023-03-20T00:33:56.092Z,4.60
2023-03-20T00:36:24.527Z,6.43
2023-03-20T00:38:53.209Z,6.10
2023-03-20T00:41:29.477Z,5.37
2023-03-20T00:44:03.427Z,4.20
2023-03-20T00:46:40.647Z,6.50
2023-03-20T00:49:12.647Z,4.18
2023-03-20T00:51:42.461Z,4.37
2023-03-20T00:54:14.779Z,3.27
2023-03-20T00:56:46.857Z,5.20
2023-03-20T00:59:21.493Z,5.22
2023-03-20T01:01:50.043Z,5.00
2023-03-20T01:04:21.147Z,3.15
2023-03-20T01:06:49.487Z,3.97
2023-03-20T01:09:17.907Z,3.78
2023-03-20T01:11:47.122Z,3.63
2023-03-20T01:14:17.995Z,4.18
2023-03-20T01:16:46.390Z,4.43
2023-03-20T01:19:16.661Z,3.08
2023-03-20T01:21:45.388Z,3.72
2023-03-20T01:24:13.539Z,4.28
2023-03-20T01:26:43.950Z,3.53
2023-03-20T01:29:22.061Z,4.53
2023-03-20T01:31:51.340Z,3.55
2023-03-20T01:34:21.641Z,4.18
2023-03-20T01:36:53.806Z,4.13
2023-03-20T01:39:24.489Z,3.17
2023-03-20T01:41:54.728Z,8.07
2023-03-20T01:44:30.357Z,3.17
2023-03-20T01:47:02.402Z,4.53
2023-03-20T01:50:22.216Z,5.50
2023-03-20T01:52:58.497Z,6.93
2023-03-20T01:55:27.700Z,4.23
2023-03-20T01:58:08.121Z,3.63
2023-03-20T02:00:38.816Z,5.07
2023-03-20T02:03:13.362Z,3.90
2023-03-20T02:06:17.576Z,4.87
2023-03-20T02:09:16.676Z,3.93
2023-03-20T02:11:47.696Z,4.33
2023-03-20T02:14:18.101Z,3.90
2023-03-20T02:16:55.713Z,4.10
2023-03-20T02:19:51.479Z,8.87
2023-03-20T02:23:17.507Z,3.63
2023-03-20T02:26:13.591Z,3.60
2023-03-20T02:29:39.185Z,3.47
2023-03-20T02:33:01.123Z,4.93
2023-03-20T02:36:11.182Z,4.57
2023-03-20T02:39:19.001Z,3.50
2023-03-20T02:41:55.987Z,3.47
2023-03-20T02:44:33.882Z,4.50
2023-03-20T02:47:12.240Z,4.72
2023-03-20T02:49:58.848Z,3.50
2023-03-20T02:52:38.368Z,4.10
2023-03-20T02:55:18.081Z,3.43
2023-03-20T02:58:01.063Z,4.87
2023-03-20T03:00:35.528Z,4.85
2023-03-20T03:03:12.407Z,3.20
2023-03-20T03:05:50.239Z,4.50
2023-03-20T03:08:23.409Z,3.93
2023-03-20T03:11:02.009Z,3.50
2023-03-20T03:13:35.202Z,3.43
2023-03-20T03:16:11.789Z,3.70
2023-03-20T03:18:42.867Z,3.50
2023-03-20T03:21:16.357Z,3.90
2023-03-20T03:23:48.661Z,6.03
2023-03-20T03:26:23.762Z,6.07
2023-03-20T03:28:57.230Z,6.13
2023-03-20T03:31:27.890Z,3.47
2023-03-20T03:33:59.654Z,4.90
2023-03-20T03:36:42.910Z,4.73
2023-03-20T03:39:26.445Z,4.55
2023-03-20T03:42:09.953Z,5.10
2023-03-20T03:44:48.800Z,5.47
2023-03-20T03:47:25.407Z,4.23
2023-03-20T03:49:59.882Z,4.43
2023-03-20T03:52:33.051Z,4.10
2023-03-20T03:55:09.708Z,4.80
2023-03-20T03:57:46.697Z,3.47
2023-03-20T04:00:22.907Z,3.40
2023-03-20T04:02:56.595Z,3.67
2023-03-20T04:05:33.142Z,3.67
2023-03-20T04:08:04.402Z,4.30
2023-03-20T04:10:32.724Z,4.70
2023-03-20T04:13:03.211Z,5.47
2023-03-20T04:15:32.045Z,3.93
2023-03-20T04:18:00.525Z,4.55
2023-03-20T04:20:29.520Z,4.27
2023-03-20T04:22:57.749Z,4.20
2023-03-20T04:25:27.834Z,6.07
2023-03-20T04:27:57.804Z,4.53
2023-03-20T04:30:48.184Z,4.50
2023-03-20T04:33:24.626Z,5.43
2023-03-20T04:36:07.881Z,4.20
2023-03-20T04:38:36.142Z,6.23
2023-03-20T04:41:04.795Z,4.07
2023-03-20T04:43:33.379Z,5.60
2023-03-20T04:46:03.120Z,4.30
2023-03-20T04:48:31.452Z,5.95
2023-03-20T04:51:00.290Z,5.00
2023-03-20T04:53:41.044Z,4.53
2023-03-20T04:56:10.238Z,4.93
2023-03-20T04:58:38.933Z,5.13
2023-03-20T05:01:08.959Z,6.03
2023-03-20T05:03:37.240Z,6.63
2023-03-20T05:06:06.392Z,5.60
2023-03-20T05:08:34.832Z,7.68
2023-03-20T05:11:03.405Z,6.10
2023-03-20T05:13:54.637Z,6.77
2023-03-20T05:16:38.004Z,6.63
2023-03-20T05:19:21.628Z,5.83
2023-03-20T05:22:08.278Z,5.87
2023-03-20T05:24:54.881Z,5.40
2023-03-20T05:27:37.383Z,6.10
2023-03-20T05:30:07.408Z,6.63
2023-03-20T05:32:59.896Z,6.70
2023-03-20T05:35:28.156Z,7.93
2023-03-20T05:38:22.594Z,9.90
2023-03-20T05:41:13.920Z,9.67
2023-03-20T05:44:21.058Z,9.47
2023-03-20T05:47:00.352Z,10.13
2023-03-20T05:49:44.446Z,9.97
2023-03-20T05:52:33.029Z,10.23
2023-03-20T05:55:19.191Z,9.90
2023-03-20T05:57:57.077Z,9.83
2023-03-20T06:00:43.823Z,10.63
2023-03-20T06:03:34.967Z,10.77
2023-03-20T06:06:12.209Z,11.63
2023-03-20T06:08:41.154Z,11.60
2023-03-20T06:11:09.836Z,12.88
2023-03-20T06:13:40.234Z,12.90
2023-03-20T06:16:09.900Z,12.03
2023-03-20T06:18:39.372Z,11.90
2023-03-20T06:21:12.797Z,12.23
2023-03-20T06:23:41.722Z,12.27
2023-03-20T06:26:11.919Z,11.00
2023-03-20T06:28:54.247Z,12.17
2023-03-20T06:31:22.460Z,10.40
2023-03-20T06:33:50.921Z,10.38
2023-03-20T06:36:20.576Z,11.27
2023-03-20T06:38:53.547Z,10.77
2023-03-20T06:41:33.819Z,11.77
2023-03-20T06:44:06.778Z,11.40
2023-03-20T06:46:55.036Z,11.57
2023-03-20T06:49:23.629Z,11.63
2023-03-20T06:51:53.245Z,14.87
2023-03-20T06:54:26.550Z,12.43
2023-03-20T06:56:55.722Z,13.25
2023-03-20T06:59:24.557Z,13.73
2023-03-20T07:01:58.184Z,13.32
2023-03-20T07:04:27.590Z,12.82
2023-03-20T07:07:00.655Z,12.80
2023-03-20T07:09:28.993Z,12.60
2023-03-20T07:11:57.406Z,14.02
2023-03-20T07:14:25.808Z,11.90
2023-03-20T07:17:01.755Z,12.93
2023-03-20T07:19:30.668Z,12.57
2023-03-20T07:22:04.297Z,11.82
2023-03-20T07:24:39.978Z,10.80
2023-03-20T07:27:08.260Z,11.20
2023-03-20T07:29:37.719Z,10.85
2023-03-20T07:32:12.078Z,10.85
2023-03-20T07:34:45.599Z,11.82
2023-03-20T07:37:15.576Z,11.20
2023-03-20T07:39:49.182Z,10.55
2023-03-20T07:42:32.533Z,11.03
2023-03-20T07:45:10.057Z,9.32
2023-03-20T07:47:39.237Z,10.57
2023-03-20T07:50:08.500Z,9.73
2023-03-20T07:52:38.423Z,9.82
2023-03-20T07:55:07.579Z,7.53
2023-03-20T07:57:35.790Z,8.90
2023-03-20T08:00:04.694Z,9.05
2023-03-20T08:02:39.936Z,7.82
2023-03-20T08:05:09.354Z,7.32
2023-03-20T08:07:39.513Z,7.80
2023-03-20T08:10:10.966Z,7.35
2023-03-20T08:12:39.302Z,9.85
2023-03-20T08:15:08.679Z,7.53
2023-03-20T08:17:36.960Z,7.10
2023-03-20T08:20:07.128Z,6.95
2023-03-20T08:22:35.321Z,6.45
2023-03-20T08:25:05.356Z,5.88
2023-03-20T08:27:33.569Z,4.82
2023-03-20T08:30:01.748Z,6.10
2023-03-20T08:32:29.959Z,5.28
2023-03-20T08:34:58.104Z,7.03
2023-03-20T08:37:26.245Z,5.07
2023-03-20T08:39:54.618Z,4.05
2023-03-20T08:42:24.284Z,4.82
2023-03-20T08:44:52.604Z,5.18
2023-03-20T08:47:20.895Z,4.65
2023-03-20T08:49:49.243Z,3.85
2023-03-20T08:52:17.570Z,4.35
2023-03-20T08:54:45.855Z,5.35
2023-03-20T08:57:14.194Z,4.05
2023-03-20T08:59:44.076Z,4.82
2023-03-20T09:02:12.902Z,4.95
2023-03-20T09:04:41.411Z,3.33
2023-03-20T09:07:09.737Z,4.05
2023-03-20T09:09:37.982Z,3.78
2023-03-20T09:12:07.383Z,4.65
2023-03-20T09:14:36.432Z,3.55
2023-03-20T09:17:06.241Z,2.80
2023-03-20T09:19:35.189Z,5.05
2023-03-20T09:22:03.451Z,2.83
2023-03-20T09:24:32.875Z,5.47
2023-03-20T09:27:03.584Z,3.13
2023-03-20T09:29:32.068Z,3.20
2023-03-20T09:32:00.394Z,2.97
2023-03-20T09:34:30.262Z,3.00
2023-03-20T09:36:58.608Z,3.15
2023-03-20T09:39:27.135Z,2.88
2023-03-20T09:41:57.780Z,2.97
2023-03-20T09:44:47.019Z,3.33
2023-03-20T09:47:25.557Z,1.73
2023-03-20T09:50:14.061Z,2.60
2023-03-20T09:52:50.160Z,3.72
2023-03-20T09:55:26.499Z,2.28
2023-03-20T09:58:02.885Z,3.10
2023-03-20T10:00:35.665Z,3.83
2023-03-20T10:03:09.229Z,2.08
2023-03-20T10:05:47.356Z,2.83
2023-03-20T10:08:19.893Z,2.20
2023-03-20T10:10:53.575Z,2.40
2023-03-20T10:14:05.811Z,2.33
2023-03-20T10:16:51.737Z,2.22
2023-03-20T10:19:28.824Z,1.65
2023-03-20T10:22:07.312Z,2.85
2023-03-20T10:24:42.749Z,1.70
2023-03-20T10:27:23.661Z,2.88
2023-03-20T10:30:14.318Z,2.17
2023-03-20T10:32:53.649Z,2.10
2023-03-20T10:35:35.367Z,1.63
2023-03-20T10:38:25.842Z,2.13
2023-03-20T10:40:57.878Z,1.73
2023-03-20T10:43:32.918Z,2.70
2023-03-20T10:46:06.181Z,2.08
2023-03-20T10:48:41.952Z,3.58
2023-03-20T10:51:17.466Z,2.30
2023-03-20T10:53:50.316Z,4.20
2023-03-20T10:56:31.594Z,3.15
2023-03-20T10:59:06.296Z,3.08
2023-03-20T11:01:35.929Z,2.13
2023-03-20T11:04:04.611Z,2.08
2023-03-20T11:06:40.342Z,2.58
2023-03-20T11:09:21.278Z,2.20
2023-03-20T11:11:53.958Z,2.10
2023-03-20T11:14:25.150Z,2.63
2023-03-20T11:16:55.585Z,2.90
2023-03-20T11:19:25.820Z,2.05
2023-03-20T11:21:57.183Z,1.95
2023-03-20T11:24:39.879Z,1.70
2023-03-20T11:27:11.790Z,1.20
2023-03-20T11:29:45.188Z,2.78
2023-03-20T11:32:29.794Z,2.80
2023-03-20T11:35:12.138Z,1.60
2023-03-20T11:37:47.511Z,4.50
2023-03-20T11:40:23.930Z,1.67
2023-03-20T11:42:58.718Z,1.80
2023-03-20T11:45:27.309Z,1.75
2023-03-20T11:47:58.513Z,1.70
2023-03-20T11:50:32.641Z,1.50
2023-03-20T11:53:03.020Z,1.77
2023-03-20T11:55:36.765Z,3.45
2023-03-20T11:58:08.055Z,1.40
2023-03-20T12:00:40.547Z,1.77
2023-03-20T12:03:43.813Z,3.75
2023-03-20T12:06:18.144Z,2.10
2023-03-20T12:08:55.067Z,2.75
2023-03-20T12:11:55.338Z,2.72
2023-03-20T12:14:32.108Z,4.00
2023-03-20T12:17:30.334Z,9.80
2023-03-20T12:20:06.976Z,2.83
2023-03-20T12:22:43.834Z,1.55
2023-03-20T12:25:24.085Z,3.13
2023-03-20T12:28:04.178Z,2.10
2023-03-20T12:30:53.546Z,2.30
2023-03-20T12:33:41.385Z,1.77
2023-03-20T12:36:16.673Z,2.03
2023-03-20T12:38:45.964Z,2.15
2023-03-20T12:41:21.346Z,1.90
2023-03-20T12:44:19.910Z,1.70
2023-03-20T12:47:04.872Z,1.92
2023-03-20T12:49:50.117Z,1.30
2023-03-20T12:52:33.755Z,1.60
2023-03-20T12:55:18.124Z,4.97
2023-03-20T12:58:02.752Z,1.30
2023-03-20T13:00:39.477Z,1.77
2023-03-20T13:03:29.252Z,2.13
2023-03-20T13:06:15.453Z,1.25
2023-03-20T13:09:06.437Z,1.52
2023-03-20T13:11:45.946Z,1.75
2023-03-20T13:14:27.716Z,1.20
2023-03-20T13:17:06.769Z,1.38
2023-03-20T13:19:45.404Z,2.17
2023-03-20T13:22:24.327Z,2.13
2023-03-20T13:25:04.827Z,1.90
2023-03-20T13:27:41.920Z,1.63
2023-03-20T13:30:24.588Z,1.10
2023-03-20T13:33:16.033Z,1.58
2023-03-20T13:35:55.757Z,2.55
2023-03-20T13:38:29.336Z,1.35
2023-03-20T13:41:05.188Z,1.77
2023-03-20T13:43:41.082Z,1.20
2023-03-20T13:46:13.998Z,3.28
2023-03-20T13:48:46.178Z,1.50
2023-03-20T13:51:30.547Z,1.30
2023-03-20T13:54:27.642Z,1.30
2023-03-20T13:57:14.716Z,2.17
2023-03-20T13:59:58.732Z,2.38
2023-03-20T14:02:42.014Z,2.85
2023-03-20T14:05:21.522Z,2.33
2023-03-20T14:07:55.929Z,3.85
2023-03-20T14:10:40.847Z,2.78
2023-03-20T14:13:18.061Z,4.00
2023-03-20T14:15:56.309Z,3.30
2023-03-20T14:18:27.400Z,3.03
2023-03-20T14:21:02.723Z,4.45
2023-03-20T14:23:37.774Z,2.85
2023-03-20T14:26:10.546Z,2.45
2023-03-20T14:28:54.432Z,2.63
2023-03-20T14:31:28.083Z,2.03
2023-03-20T14:34:09.847Z,2.28
2023-03-20T14:36:57.818Z,2.22
2023-03-20T14:40:02.368Z,1.73
2023-03-20T14:42:47.960Z,3.17
2023-03-20T14:45:37.451Z,1.85
2023-03-20T14:48:18.085Z,7.00
2023-03-20T14:51:08.275Z,3.25
2023-03-20T14:53:41.025Z,5.18
2023-03-20T14:56:12.989Z,2.47
2023-03-20T14:58:57.826Z,4.38
2023-03-20T15:01:41.753Z,3.90
2023-03-20T15:04:23.699Z,3.55
2023-03-20T15:07:00.375Z,3.10
2023-03-20T15:09:35.658Z,17.13
2023-03-20T15:12:05.876Z,4.80
2023-03-20T15:14:46.005Z,8.10
2023-03-20T15:17:24.375Z,5.28
2023-03-20T15:20:01.844Z,4.07
2023-03-20T15:22:30.329Z,16.23
2023-03-20T15:25:00.118Z,6.13
2023-03-20T15:27:30.701Z,6.53
2023-03-20T15:30:02.350Z,8.32
2023-03-20T15:32:30.940Z,5.78
2023-03-20T15:34:59.389Z,3.45
2023-03-20T15:37:28.709Z,2.97
2023-03-20T15:39:59.163Z,6.47
2023-03-20T15:42:29.008Z,5.63
2023-03-20T15:44:57.777Z,4.38
2023-03-20T15:47:27.113Z,6.93
2023-03-20T15:49:57.922Z,4.93
2023-03-20T15:52:32.659Z,4.60
2023-03-20T15:55:07.420Z,5.15
2023-03-20T15:57:41.595Z,4.43
2023-03-20T16:00:18.163Z,6.38
2023-03-20T16:02:48.953Z,7.60
2023-03-20T16:05:20.058Z,6.20
2023-03-20T16:07:48.368Z,5.65
2023-03-20T16:10:23.780Z,6.57
2023-03-20T16:12:55.421Z,7.40
2023-03-20T16:15:31.224Z,8.60
2023-03-20T16:18:03.767Z,7.50
2023-03-20T16:20:38.996Z,7.03
2023-03-20T16:23:10.796Z,7.50
2023-03-20T16:25:39.630Z,7.53
2023-03-20T16:28:09.312Z,7.78
2023-03-20T16:30:38.242Z,8.55
2023-03-20T16:33:13.962Z,6.93
2023-03-20T16:35:48.382Z,5.47
2023-03-20T16:38:25.599Z,6.43
2023-03-20T16:40:58.322Z,7.57
2023-03-20T16:43:32.668Z,4.70
2023-03-20T16:46:07.482Z,5.25
2023-03-20T16:48:37.736Z,6.45
2023-03-20T16:51:18.806Z,4.53
2023-03-20T16:53:50.686Z,4.43
2023-03-20T16:56:28.470Z,5.03
2023-03-20T16:58:58.482Z,5.85
2023-03-20T17:01:29.712Z,5.85
2023-03-20T17:04:12.297Z,4.53
2023-03-20T17:06:48.564Z,8.88
2023-03-20T17:09:26.791Z,4.32
2023-03-20T17:12:04.308Z,4.60
2023-03-20T17:14:34.175Z,5.88
2023-03-20T17:17:02.529Z,5.90
2023-03-20T17:19:33.957Z,4.32
2023-03-20T17:22:05.606Z,5.15
2023-03-20T17:24:33.849Z,5.18
2023-03-20T17:27:02.114Z,6.15
2023-03-20T17:29:30.382Z,12.98
2023-03-20T17:32:00.126Z,11.50
2023-03-20T17:34:28.485Z,8.07
2023-03-20T17:36:57.363Z,8.38
2023-03-20T17:39:25.535Z,6.85
2023-03-20T17:41:53.767Z,7.07
2023-03-20T17:44:22.037Z,6.82
2023-03-20T17:46:58.460Z,9.85
2023-03-20T17:49:28.737Z,10.75
2023-03-20T17:51:57.678Z,10.65
2023-03-20T17:54:26.232Z,9.80
2023-03-20T17:56:54.516Z,10.15
2023-03-20T17:59:22.754Z,7.68
2023-03-20T18:01:51.289Z,10.90
2023-03-20T18:04:19.931Z,11.27
2023-03-20T18:06:49.533Z,10.43
2023-03-20T18:09:17.898Z,8.55
2023-03-20T18:11:46.166Z,10.70
2023-03-20T18:14:17.906Z,11.68
2023-03-20T18:16:47.008Z,13.32
2023-03-20T18:19:25.727Z,14.60
2023-03-20T18:21:56.538Z,11.73
2023-03-20T18:24:25.277Z,11.95
2023-03-20T18:26:54.987Z,11.68
2023-03-20T18:29:23.278Z,11.80
2023-03-20T18:31:51.822Z,10.48
2023-03-20T18:34:20.231Z,9.73
2023-03-20T18:36:48.505Z,9.70
2023-03-20T18:39:20.915Z,11.60
2023-03-20T18:41:50.025Z,8.63
2023-03-20T18:44:18.427Z,8.98
2023-03-20T18:46:46.850Z,9.93
2023-03-20T18:49:17.216Z,9.45
2023-03-20T18:51:46.654Z,9.35
2023-03-20T18:54:15.044Z,8.27
2023-03-20T18:56:44.821Z,8.97
2023-03-20T18:59:14.395Z,6.65
2023-03-20T19:01:42.982Z,6.50
2023-03-20T19:04:11.453Z,5.95
2023-03-20T19:06:39.886Z,7.80
2023-03-20T19:09:10.762Z,6.53
2023-03-20T19:11:39.325Z,6.78
2023-03-20T19:14:09.202Z,9.70
2023-03-20T19:16:38.568Z,6.95
2023-03-20T19:19:09.764Z,7.43
2023-03-20T19:21:38.325Z,7.93
2023-03-20T19:24:08.688Z,8.37
2023-03-20T19:26:38.615Z,8.82
2023-03-20T19:29:10.567Z,10.13
2023-03-20T19:31:38.892Z,11.70
2023-03-20T19:34:44.474Z,10.00
2023-03-20T19:37:03.930Z,8.15
2023-03-20T19:39:32.293Z,7.80
2023-03-20T19:42:30.310Z,10.65
2023-03-20T19:44:57.871Z,8.47
2023-03-20T19:47:27.553Z,10.23
2023-03-20T19:49:55.793Z,10.30
2023-03-20T19:52:33.633Z,8.93
2023-03-20T19:55:04.713Z,10.35
2023-03-20T19:57:35.823Z,9.77
2023-03-20T20:00:54.742Z,10.50
2023-03-20T20:02:57.539Z,11.50
2023-03-20T20:05:35.611Z,11.10
2023-03-20T20:08:24.210Z,14.05
2023-03-20T20:11:06.877Z,14.90
2023-03-20T20:13:47.048Z,15.98
2023-03-20T20:16:55.634Z,19.60
2023-03-20T20:19:25.093Z,12.18
2023-03-20T20:24:42.130Z,15.05
2023-03-20T20:27:41.839Z,15.15
2023-03-20T20:30:23.062Z,12.57
2023-03-20T20:33:05.236Z,14.73
2023-03-20T20:36:19.944Z,13.40
2023-03-20T20:38:49.633Z,12.97
2023-03-20T20:44:15.525Z,11.67
2023-03-20T20:47:01.503Z,12.17
2023-03-20T20:49:40.623Z,14.17
2023-03-20T20:52:15.724Z,11.97
2023-03-20T20:55:07.878Z,16.90
2023-03-20T20:57:46.511Z,25.37
2023-03-20T21:00:50.606Z,31.03
2023-03-20T21:06:17.889Z,14.60
2023-03-20T21:08:46.317Z,15.00
2023-03-20T21:11:20.909Z,10.83
2023-03-20T21:13:54.921Z,9.33
2023-03-20T21:16:23.349Z,10.30
2023-03-20T21:18:55.094Z,8.80
2023-03-20T21:21:24.911Z,9.63
2023-03-20T21:23:53.502Z,10.30
2023-03-20T21:26:44.110Z,8.03
2023-03-20T21:29:16.086Z,7.67
2023-03-20T21:31:44.425Z,7.50
2023-03-20T21:34:14.323Z,10.90
2023-03-20T21:36:48.779Z,8.87
2023-03-20T21:39:22.900Z,9.03
2023-03-20T21:41:51.499Z,10.10
2023-03-20T21:44:48.750Z,8.83
2023-03-20T21:47:58.607Z,9.90
2023-03-20T21:59:11.070Z,7.30
2023-03-20T22:02:04.160Z,10.57
2023-03-20T22:07:51.921Z,8.33
2023-03-20T22:20:44.900Z,8.93
2023-03-20T22:25:18.481Z,8.03
2023-03-20T22:28:15.200Z,9.87
2023-03-20T22:34:09.173Z,8.87
2023-03-20T22:44:58.587Z,10.70
2023-03-20T22:47:21.875Z,12.03
2023-03-20T22:49:54.660Z,9.83
2023-03-20T22:52:34.800Z,10.13
2023-03-20T22:55:09.457Z,10.70
2023-03-20T22:57:45.526Z,11.20
2023-03-20T23:00:23.339Z,12.37
2023-03-20T23:02:55.001Z,14.43
2023-03-20T23:05:25.726Z,12.27
2023-03-20T23:07:53.952Z,11.70
2023-03-20T23:10:22.378Z,10.27
2023-03-20T23:12:50.570Z,9.23
2023-03-20T23:15:23.185Z,13.27
2023-03-20T23:17:53.904Z,12.53
2023-03-20T23:20:26.035Z,12.40
2023-03-20T23:22:55.162Z,11.43
2023-03-20T23:25:38.896Z,10.90
2023-03-20T23:28:09.123Z,10.07
2023-03-20T23:30:47.989Z,10.30
2023-03-20T23:33:20.195Z,12.70
2023-03-20T23:35:49.800Z,11.77
2023-03-20T23:38:19.471Z,11.50
2023-03-20T23:40:51.133Z,10.30
2023-03-20T23:43:20.581Z,12.17
2023-03-20T23:45:50.870Z,12.30
2023-03-20T23:48:19.733Z,10.87
2023-03-20T23:50:53.121Z,12.53
2023-03-20T23:53:22.028Z,15.30
2023-03-20T23:55:53.852Z,16.03
2023-03-20T23:58:24.326Z,16.57
